createdAt,value
2023-01-15T00:00:15.775Z,9.88
2023-01-15T00:02:43.801Z,10.18
2023-01-15T00:05:13.301Z,9.68
2023-01-15T00:07:40.956Z,9.83
2023-01-15T00:10:10.847Z,9.63
2023-01-15T00:12:38.926Z,9.45
2023-01-15T00:15:07.237Z,10.10
2023-01-15T00:17:35.405Z,9.00
2023-01-15T00:20:03.440Z,9.50
2023-01-15T00:22:31.510Z,9.35
2023-01-15T00:25:17.724Z,8.25
2023-01-15T00:27:46.453Z,9.40
2023-01-15T00:30:17.186Z,8.68
2023-01-15T00:32:45.654Z,9.05
2023-01-15T00:35:19.898Z,8.43
2023-01-15T00:37:47.848Z,9.00
2023-01-15T00:40:18.030Z,9.18
2023-01-15T00:42:54.525Z,9.70
2023-01-15T00:45:18.989Z,9.20
2023-01-15T00:47:49.254Z,8.70
2023-01-15T00:50:16.661Z,8.60
2023-01-15T00:52:44.608Z,7.75
2023-01-15T00:55:11.980Z,8.50
2023-01-15T00:57:39.888Z,8.23
2023-01-15T01:00:09.761Z,8.13
2023-01-15T01:02:37.549Z,8.18
2023-01-15T01:05:05.714Z,8.03
2023-01-15T01:07:33.414Z,7.65
2023-01-15T01:10:01.225Z,8.43
2023-01-15T01:12:29.326Z,7.67
2023-01-15T01:14:56.974Z,9.05
2023-01-15T01:17:25.064Z,8.43
2023-01-15T01:19:52.946Z,7.20
2023-01-15T01:22:20.498Z,8.35
2023-01-15T01:24:48.339Z,8.25
2023-01-15T01:27:17.305Z,8.18
2023-01-15T01:29:46.622Z,8.20
2023-01-15T01:32:14.424Z,7.83
2023-01-15T01:34:42.077Z,8.05
2023-01-15T01:37:10.426Z,8.25
2023-01-15T01:39:37.887Z,9.05
2023-01-15T01:42:16.051Z,9.38
2023-01-15T01:44:47.439Z,8.38
2023-01-15T01:47:20.478Z,8.75
2023-01-15T01:49:49.734Z,8.05
2023-01-15T01:52:24.408Z,8.30
2023-01-15T01:54:53.037Z,8.88
2023-01-15T01:57:21.871Z,8.55
2023-01-15T01:59:50.346Z,8.93
2023-01-15T02:02:21.920Z,8.33
2023-01-15T02:04:50.039Z,8.50
2023-01-15T02:07:18.166Z,9.03
2023-01-15T02:09:46.481Z,9.85
2023-01-15T02:12:24.502Z,8.48
2023-01-15T02:15:10.034Z,8.58
2023-01-15T02:17:41.441Z,10.00
2023-01-15T02:20:22.104Z,9.33
2023-01-15T02:22:59.716Z,10.30
2023-01-15T02:25:54.635Z,9.50
2023-01-15T02:28:31.986Z,9.47
2023-01-15T02:31:12.338Z,9.43
2023-01-15T02:33:43.896Z,8.68
2023-01-15T02:36:15.481Z,10.45
2023-01-15T02:38:46.897Z,9.55
2023-01-15T02:41:18.222Z,9.65
2023-01-15T02:43:50.656Z,9.30
2023-01-15T02:46:20.152Z,9.33
2023-01-15T02:48:53.592Z,10.08
2023-01-15T02:51:25.428Z,8.70
2023-01-15T02:53:57.657Z,9.65
2023-01-15T02:56:29.355Z,8.88
2023-01-15T02:59:01.058Z,9.25
2023-01-15T03:01:34.479Z,9.85
2023-01-15T03:04:11.121Z,10.10
2023-01-15T03:06:42.649Z,9.53
2023-01-15T03:09:13.212Z,8.98
2023-01-15T03:11:52.187Z,9.58
2023-01-15T03:14:26.971Z,9.48
2023-01-15T03:16:59.256Z,8.75
2023-01-15T03:19:36.523Z,9.13
2023-01-15T03:22:28.080Z,9.20
2023-01-15T03:24:59.598Z,9.65
2023-01-15T03:27:29.379Z,10.15
2023-01-15T03:30:13.791Z,10.05
2023-01-15T03:32:43.391Z,10.97
2023-01-15T03:35:48.313Z,10.00
2023-01-15T03:38:21.181Z,10.10
2023-01-15T03:40:58.393Z,10.43
2023-01-15T03:43:51.069Z,9.00
2023-01-15T03:46:27.907Z,9.88
2023-01-15T03:49:10.661Z,9.43
2023-01-15T03:52:01.852Z,9.20
2023-01-15T03:54:50.617Z,9.30
2023-01-15T03:57:37.492Z,9.98
2023-01-15T04:00:18.301Z,9.50
2023-01-15T04:02:49.011Z,8.90
2023-01-15T04:05:19.586Z,9.05
2023-01-15T04:07:50.295Z,9.85
2023-01-15T04:10:19.157Z,8.55
2023-01-15T04:12:49.709Z,9.00
2023-01-15T04:15:19.408Z,8.60
2023-01-15T04:17:47.667Z,8.78
2023-01-15T04:20:17.100Z,8.30
2023-01-15T04:22:45.767Z,10.10
2023-01-15T04:25:13.795Z,8.55
2023-01-15T04:27:42.579Z,9.03
2023-01-15T04:30:12.342Z,9.13
2023-01-15T04:32:40.049Z,7.85
2023-01-15T04:35:07.767Z,8.73
2023-01-15T04:37:35.563Z,9.18
2023-01-15T04:40:03.318Z,8.85
2023-01-15T04:42:49.078Z,8.65
2023-01-15T04:45:16.947Z,11.50
2023-01-15T04:47:44.544Z,13.35
2023-01-15T04:50:12.789Z,12.98
2023-01-15T04:52:40.246Z,12.53
2023-01-15T04:55:08.515Z,12.53
2023-01-15T04:57:37.211Z,12.28
2023-01-15T05:00:05.773Z,11.60
2023-01-15T05:02:33.986Z,11.43
2023-01-15T05:05:01.538Z,11.65
2023-01-15T05:07:29.307Z,12.33
2023-01-15T05:09:57.151Z,11.68
2023-01-15T05:12:24.538Z,12.05
2023-01-15T05:14:52.164Z,12.23
2023-01-15T05:17:20.482Z,12.00
2023-01-15T05:19:48.192Z,11.60
2023-01-15T05:22:16.211Z,10.95
2023-01-15T05:24:44.857Z,10.20
2023-01-15T05:27:12.892Z,12.13
2023-01-15T05:29:40.384Z,12.58
2023-01-15T05:32:09.626Z,12.20
2023-01-15T05:34:37.562Z,11.45
2023-01-15T05:37:05.156Z,11.57
2023-01-15T05:39:33.553Z,12.95
2023-01-15T05:42:02.621Z,11.38
2023-01-15T05:44:30.917Z,11.40
2023-01-15T05:47:00.828Z,12.45
2023-01-15T05:49:30.093Z,12.03
2023-01-15T05:52:00.770Z,12.28
2023-01-15T05:54:33.191Z,12.20
2023-01-15T05:57:01.830Z,12.70
2023-01-15T05:59:30.447Z,12.50
2023-01-15T06:01:58.772Z,12.15
2023-01-15T06:04:40.511Z,12.55
2023-01-15T06:07:08.537Z,13.50
2023-01-15T06:09:36.566Z,13.70
2023-01-15T06:12:05.125Z,12.80
2023-01-15T06:14:32.902Z,12.63
2023-01-15T06:17:00.873Z,11.75
2023-01-15T06:19:28.571Z,12.25
2023-01-15T06:21:56.545Z,12.60
2023-01-15T06:24:24.379Z,12.80
2023-01-15T06:26:52.164Z,13.13
2023-01-15T06:29:20.796Z,12.78
2023-01-15T06:31:49.787Z,14.38
2023-01-15T06:34:17.467Z,14.10
2023-01-15T06:36:45.387Z,14.15
2023-01-15T06:39:15.689Z,15.38
2023-01-15T06:42:01.870Z,15.90
2023-01-15T06:44:48.385Z,14.98
2023-01-15T06:47:22.514Z,14.78
2023-01-15T06:49:53.897Z,14.45
2023-01-15T06:52:22.583Z,15.68
2023-01-15T06:54:50.639Z,15.45
2023-01-15T06:57:21.320Z,15.75
2023-01-15T06:59:51.578Z,15.38
2023-01-15T07:02:19.182Z,16.32
2023-01-15T07:04:48.231Z,16.17
2023-01-15T07:07:17.542Z,15.25
2023-01-15T07:09:45.943Z,15.90
2023-01-15T07:12:15.426Z,14.60
2023-01-15T07:14:46.274Z,14.75
2023-01-15T07:17:17.224Z,15.98
2023-01-15T07:19:45.495Z,16.05
2023-01-15T07:22:12.897Z,16.12
2023-01-15T07:24:40.860Z,18.23
2023-01-15T07:27:09.045Z,18.70
2023-01-15T07:29:36.651Z,18.42
2023-01-15T07:32:04.977Z,20.45
2023-01-15T07:34:33.318Z,20.68
2023-01-15T07:37:01.535Z,20.52
2023-01-15T07:39:29.002Z,18.82
2023-01-15T07:42:14.980Z,15.23
2023-01-15T07:45:04.357Z,15.40
2023-01-15T07:47:50.437Z,14.78
2023-01-15T07:53:01.139Z,15.58
2023-01-15T07:58:15.549Z,15.30
2023-01-15T08:00:43.959Z,19.17
2023-01-15T08:03:11.731Z,18.32
2023-01-15T08:05:39.460Z,17.07
2023-01-15T08:08:07.061Z,17.35
2023-01-15T08:10:36.919Z,17.60
2023-01-15T08:13:22.783Z,18.35
2023-01-15T08:15:52.257Z,18.82
2023-01-15T08:18:19.589Z,18.07
2023-01-15T08:20:47.963Z,19.32
2023-01-15T08:23:15.689Z,18.65
2023-01-15T08:25:44.496Z,17.73
2023-01-15T08:28:14.175Z,18.17
2023-01-15T08:30:41.617Z,18.65
2023-01-15T08:33:09.707Z,18.17
2023-01-15T08:35:37.497Z,18.00
2023-01-15T08:38:16.599Z,18.23
2023-01-15T08:40:59.706Z,19.00
2023-01-15T08:43:29.115Z,19.23
2023-01-15T08:46:02.954Z,19.00
2023-01-15T08:48:32.850Z,18.48
2023-01-15T08:51:06.603Z,19.35
2023-01-15T08:53:35.279Z,18.37
2023-01-15T08:56:03.803Z,18.23
2023-01-15T08:58:33.331Z,19.85
2023-01-15T09:01:08.458Z,19.45
2023-01-15T09:03:37.571Z,17.67
2023-01-15T09:06:06.179Z,17.23
2023-01-15T09:08:37.418Z,19.32
2023-01-15T09:11:07.502Z,17.00
2023-01-15T09:13:36.784Z,16.57
2023-01-15T09:16:06.142Z,18.17
2023-01-15T09:18:36.160Z,16.05
2023-01-15T09:21:05.133Z,16.70
2023-01-15T09:23:33.751Z,15.83
2023-01-15T09:26:06.843Z,15.25
2023-01-15T09:28:35.820Z,15.98
2023-01-15T09:31:03.711Z,15.03
2023-01-15T09:33:31.861Z,15.43
2023-01-15T09:35:59.540Z,16.60
2023-01-15T09:38:27.623Z,16.05
2023-01-15T09:41:00.746Z,17.55
2023-01-15T09:43:50.780Z,19.10
2023-01-15T09:46:34.049Z,20.20
2023-01-15T09:49:24.107Z,20.65
2023-01-15T09:52:19.363Z,21.57
2023-01-15T09:55:21.053Z,23.32
2023-01-15T09:57:52.753Z,22.07
2023-01-15T10:00:24.570Z,23.50
2023-01-15T10:03:07.996Z,20.48
2023-01-15T10:05:46.210Z,21.73
2023-01-15T10:08:26.454Z,20.60
2023-01-15T10:11:04.186Z,19.95
2023-01-15T10:14:22.779Z,19.27
2023-01-15T10:16:51.597Z,19.57
2023-01-15T10:19:20.637Z,19.60
2023-01-15T10:22:18.153Z,21.30
2023-01-15T10:24:49.467Z,18.48
2023-01-15T10:27:23.726Z,19.48
2023-01-15T10:30:04.053Z,18.37
2023-01-15T10:33:03.426Z,18.32
2023-01-15T10:35:30.424Z,19.27
2023-01-15T10:38:25.937Z,19.50
2023-01-15T10:41:00.173Z,19.85
2023-01-15T10:43:43.748Z,19.20
2023-01-15T10:46:16.785Z,19.37
2023-01-15T10:48:54.387Z,19.45
2023-01-15T10:51:46.548Z,20.05
2023-01-15T10:54:27.063Z,19.90
2023-01-15T10:57:04.177Z,19.07
2023-01-15T10:59:44.354Z,19.00
2023-01-15T11:02:30.715Z,18.55
2023-01-15T11:04:58.506Z,18.57
2023-01-15T11:08:05.508Z,21.33
2023-01-15T11:10:15.982Z,22.27
2023-01-15T11:13:17.079Z,21.87
2023-01-15T11:16:19.809Z,21.25
2023-01-15T11:19:06.652Z,24.50
2023-01-15T11:21:37.719Z,28.40
2023-01-15T11:24:07.589Z,26.93
2023-01-15T11:29:19.393Z,26.35
2023-01-15T11:31:47.167Z,25.17
2023-01-15T11:34:24.651Z,24.60
2023-01-15T11:37:06.360Z,22.35
2023-01-15T11:39:34.347Z,20.32
2023-01-15T11:42:23.799Z,19.95
2023-01-15T11:45:15.217Z,20.08
2023-01-15T11:48:12.322Z,22.02
2023-01-15T11:50:56.048Z,21.93
2023-01-15T11:53:29.816Z,23.83
2023-01-15T11:56:05.258Z,24.10
2023-01-15T11:58:36.603Z,35.28
2023-01-15T12:01:05.073Z,44.67
2023-01-15T12:03:35.336Z,23.45
2023-01-15T12:06:06.207Z,21.80
2023-01-15T12:08:54.733Z,24.80
2023-01-15T12:11:46.341Z,35.15
2023-01-15T12:14:35.358Z,29.52
2023-01-15T12:17:13.139Z,28.07
2023-01-15T12:19:44.551Z,27.75
2023-01-15T12:22:40.133Z,27.60
2023-01-15T12:25:30.752Z,26.30
2023-01-15T12:28:08.339Z,27.52
2023-01-15T12:30:59.804Z,25.57
2023-01-15T12:36:30.599Z,28.70
2023-01-15T12:39:07.823Z,27.02
2023-01-15T12:41:56.761Z,27.95
2023-01-15T12:45:01.845Z,26.68
2023-01-15T12:47:42.245Z,27.27
2023-01-15T12:50:31.767Z,26.48
2023-01-15T12:53:23.991Z,25.45
2023-01-15T12:56:16.283Z,24.52
2023-01-15T12:58:57.036Z,25.17
2023-01-15T13:01:45.186Z,26.48
2023-01-15T13:04:19.626Z,28.32
2023-01-15T13:09:36.009Z,29.70
2023-01-15T13:12:04.121Z,30.77
2023-01-15T13:14:31.754Z,29.85
2023-01-15T13:17:04.012Z,29.02
2023-01-15T13:19:44.998Z,27.25
2023-01-15T13:22:16.985Z,28.95
2023-01-15T13:24:48.904Z,28.07
2023-01-15T13:27:41.433Z,27.48
2023-01-15T13:30:32.823Z,26.80
2023-01-15T13:33:07.064Z,29.25
2023-01-15T13:35:38.768Z,27.50
2023-01-15T13:38:10.498Z,28.40
2023-01-15T13:40:49.876Z,29.95
2023-01-15T13:43:24.340Z,28.25
2023-01-15T13:45:52.515Z,27.20
2023-01-15T13:48:27.859Z,27.07
2023-01-15T13:51:00.288Z,26.57
2023-01-15T13:53:34.639Z,27.15
2023-01-15T13:56:06.125Z,26.35
2023-01-15T13:58:36.500Z,27.07
2023-01-15T14:01:33.250Z,26.73
2023-01-15T14:04:07.237Z,24.43
2023-01-15T14:06:44.599Z,25.95
2023-01-15T14:09:21.477Z,25.95
2023-01-15T14:12:09.472Z,27.05
2023-01-15T14:15:05.628Z,25.40
2023-01-15T14:18:01.804Z,25.75
2023-01-15T14:21:00.925Z,26.90
2023-01-15T14:24:07.359Z,26.97
2023-01-15T14:26:50.639Z,53.50
2023-01-15T14:41:34.184Z,26.07
2023-01-15T14:44:04.739Z,28.60
2023-01-15T14:46:38.487Z,29.85
2023-01-15T14:49:08.453Z,32.30
2023-01-15T14:51:40.218Z,34.40
2023-01-15T14:54:13.835Z,35.00
2023-01-15T14:56:45.620Z,31.75
2023-01-15T14:59:38.644Z,31.87
2023-01-15T15:02:09.736Z,31.00
2023-01-15T15:04:41.178Z,30.72
2023-01-15T15:07:34.141Z,28.65
2023-01-15T15:10:12.616Z,28.77
2023-01-15T15:13:01.316Z,28.02
2023-01-15T15:15:50.647Z,29.25
2023-01-15T15:21:26.380Z,33.10
2023-01-15T15:24:00.714Z,33.85
2023-01-15T15:26:36.461Z,36.28
2023-01-15T15:29:13.935Z,35.92
2023-01-15T15:31:45.736Z,35.55
2023-01-15T15:34:20.797Z,32.73
2023-01-15T15:36:48.573Z,35.55
2023-01-15T15:39:37.132Z,35.63
2023-01-15T15:42:26.654Z,33.53
2023-01-15T15:45:16.580Z,34.60
2023-01-15T15:48:03.183Z,35.48
2023-01-15T15:50:34.625Z,35.05
2023-01-15T15:55:55.255Z,35.38
2023-01-15T15:58:32.825Z,34.78
2023-01-15T16:01:01.637Z,34.08
2023-01-15T16:03:33.353Z,33.65
2023-01-15T16:06:05.210Z,35.33
2023-01-15T16:08:35.623Z,35.13
2023-01-15T16:11:07.571Z,37.60
2023-01-15T16:13:48.123Z,34.63
2023-01-15T16:16:19.860Z,35.13
2023-01-15T16:18:53.338Z,36.08
2023-01-15T16:21:24.708Z,35.58
2023-01-15T16:24:07.511Z,36.70
2023-01-15T16:26:45.673Z,35.20
2023-01-15T16:29:26.305Z,37.10
2023-01-15T16:31:56.495Z,35.20
2023-01-15T16:34:30.845Z,36.25
2023-01-15T16:36:59.931Z,38.92
2023-01-15T16:39:46.655Z,37.60
2023-01-15T16:45:22.331Z,38.05
2023-01-15T16:48:02.808Z,38.73
2023-01-15T16:50:33.095Z,41.23
2023-01-15T16:53:02.669Z,40.17
2023-01-15T16:55:40.542Z,39.90
2023-01-15T16:58:15.213Z,41.90
2023-01-15T17:00:45.961Z,39.30
2023-01-15T17:03:21.777Z,38.20
2023-01-15T17:06:00.135Z,37.00
2023-01-15T17:08:39.983Z,35.78
2023-01-15T17:11:23.332Z,36.13
2023-01-15T17:14:13.829Z,34.80
2023-01-15T17:16:42.008Z,36.13
2023-01-15T17:19:11.865Z,38.02
2023-01-15T17:21:48.317Z,39.35
2023-01-15T17:24:16.103Z,36.90
2023-01-15T17:26:44.119Z,36.00
2023-01-15T17:29:12.663Z,36.42
2023-01-15T17:31:43.810Z,35.65
2023-01-15T17:34:12.467Z,35.05
2023-01-15T17:36:43.182Z,35.20
2023-01-15T17:39:13.347Z,35.08
2023-01-15T17:41:41.440Z,38.55
2023-01-15T17:44:10.698Z,38.70
2023-01-15T17:46:38.877Z,41.48
2023-01-15T17:49:06.637Z,41.63
2023-01-15T17:51:34.827Z,43.30
2023-01-15T17:54:04.966Z,42.03
2023-01-15T17:56:46.562Z,44.15
2023-01-15T17:59:33.183Z,41.80
2023-01-15T18:02:19.327Z,42.35
2023-01-15T18:05:03.845Z,40.08
2023-01-15T18:07:37.316Z,41.77
2023-01-15T18:10:06.372Z,39.58
2023-01-15T18:12:34.221Z,43.98
2023-01-15T18:15:02.118Z,42.85
2023-01-15T18:17:42.239Z,43.13
2023-01-15T18:20:08.321Z,41.18
2023-01-15T18:22:35.718Z,43.23
2023-01-15T18:25:02.853Z,43.20
2023-01-15T18:27:30.680Z,44.58
2023-01-15T18:29:59.746Z,43.20
2023-01-15T18:32:31.026Z,46.02
2023-01-15T18:34:58.449Z,45.50
2023-01-15T18:37:26.360Z,44.63
2023-01-15T18:40:02.600Z,46.37
2023-01-15T18:42:48.711Z,47.33
2023-01-15T18:45:35.631Z,47.53
2023-01-15T18:48:04.031Z,46.42
2023-01-15T18:50:32.441Z,45.28
2023-01-15T18:53:00.347Z,43.95
2023-01-15T18:55:28.160Z,42.73
2023-01-15T18:57:57.059Z,43.20
2023-01-15T19:00:25.410Z,39.90
2023-01-15T19:02:53.453Z,38.60
2023-01-15T19:05:21.139Z,38.25
2023-01-15T19:07:49.078Z,37.90
2023-01-15T19:10:18.345Z,39.50
2023-01-15T19:12:46.552Z,37.05
2023-01-15T19:15:39.570Z,36.50
2023-01-15T19:18:25.525Z,35.60
2023-01-15T19:20:53.851Z,38.67
2023-01-15T19:23:21.682Z,37.35
2023-01-15T19:25:49.993Z,36.55
2023-01-15T19:28:20.869Z,36.98
2023-01-15T19:31:07.892Z,34.70
2023-01-15T19:33:36.427Z,35.98
2023-01-15T19:36:04.413Z,34.48
2023-01-15T19:38:33.902Z,37.30
2023-01-15T19:41:06.269Z,35.28
2023-01-15T19:43:52.571Z,36.55
2023-01-15T19:46:38.736Z,34.25
2023-01-15T19:49:33.921Z,35.83
2023-01-15T19:52:20.147Z,35.23
2023-01-15T19:54:57.304Z,36.17
2023-01-15T19:57:25.449Z,35.58
2023-01-15T19:59:53.761Z,34.95
2023-01-15T20:02:21.990Z,34.30
2023-01-15T20:04:53.000Z,33.70
2023-01-15T20:07:21.405Z,33.28
2023-01-15T20:09:49.025Z,35.35
2023-01-15T20:12:38.065Z,35.90
2023-01-15T20:15:25.775Z,37.67
2023-01-15T20:17:54.313Z,40.98
2023-01-15T20:20:22.005Z,39.67
2023-01-15T20:23:03.576Z,37.55
2023-01-15T20:25:31.392Z,36.85
2023-01-15T20:28:00.511Z,38.42
2023-01-15T20:30:28.715Z,39.53
2023-01-15T20:33:00.597Z,39.03
2023-01-15T20:35:34.700Z,38.63
2023-01-15T20:38:02.970Z,37.33
2023-01-15T20:40:33.346Z,37.20
2023-01-15T20:43:20.723Z,35.25
2023-01-15T20:45:48.731Z,35.10
2023-01-15T20:48:35.353Z,35.95
2023-01-15T20:51:06.952Z,37.55
2023-01-15T20:53:35.789Z,36.53
2023-01-15T20:56:07.248Z,37.23
2023-01-15T20:58:35.293Z,37.85
2023-01-15T21:01:05.201Z,42.50
2023-01-15T21:03:33.148Z,38.35
2023-01-15T21:06:03.875Z,37.03
2023-01-15T21:08:33.583Z,37.60
2023-01-15T21:11:02.365Z,37.67
2023-01-15T21:13:31.394Z,38.98
2023-01-15T21:16:02.103Z,40.17
2023-01-15T21:18:31.482Z,40.45
2023-01-15T21:20:59.521Z,39.20
2023-01-15T21:23:29.441Z,40.73
2023-01-15T21:26:06.845Z,40.98
2023-01-15T21:28:35.005Z,38.83
2023-01-15T21:31:08.188Z,38.53
2023-01-15T21:33:36.680Z,36.03
2023-01-15T21:36:13.327Z,36.20
2023-01-15T21:38:41.299Z,36.00
2023-01-15T21:41:15.715Z,36.50
2023-01-15T21:44:02.431Z,33.88
2023-01-15T21:46:30.304Z,32.55
2023-01-15T21:49:00.129Z,33.75
2023-01-15T21:51:28.034Z,34.98
2023-01-15T21:54:00.096Z,33.92
2023-01-15T21:56:27.709Z,33.20
2023-01-15T21:59:16.173Z,33.80
2023-01-15T22:01:44.582Z,32.50
2023-01-15T22:04:12.615Z,31.20
2023-01-15T22:06:40.593Z,31.00
2023-01-15T22:09:08.333Z,30.65
2023-01-15T22:11:45.983Z,30.08
2023-01-15T22:14:19.608Z,30.08
2023-01-15T22:16:47.827Z,29.63
2023-01-15T22:19:17.793Z,28.95
2023-01-15T22:21:47.029Z,62.83
2023-01-15T22:24:14.618Z,36.25
2023-01-15T22:26:43.940Z,29.60
2023-01-15T22:29:12.086Z,36.88
2023-01-15T22:31:41.453Z,33.30
2023-01-15T22:34:09.559Z,32.38
2023-01-15T22:36:37.194Z,30.37
2023-01-15T22:39:05.595Z,30.08
2023-01-15T22:41:54.248Z,28.90
2023-01-15T22:44:43.717Z,28.77
2023-01-15T22:47:12.403Z,29.15
2023-01-15T22:49:43.796Z,27.35
2023-01-15T22:52:39.548Z,26.95
2023-01-15T22:55:08.327Z,27.13
2023-01-15T22:57:36.724Z,25.70
2023-01-15T23:00:17.833Z,26.12
2023-01-15T23:02:59.268Z,24.30
2023-01-15T23:05:46.818Z,26.85
2023-01-15T23:08:15.576Z,23.73
2023-01-15T23:10:47.628Z,25.25
2023-01-15T23:13:15.502Z,25.55
2023-01-15T23:15:43.500Z,25.30
2023-01-15T23:18:11.277Z,23.75
2023-01-15T23:20:41.186Z,25.08
2023-01-15T23:23:08.967Z,27.37
2023-01-15T23:25:36.684Z,25.75
2023-01-15T23:28:05.366Z,26.65
2023-01-15T23:30:33.450Z,24.92
2023-01-15T23:33:01.169Z,26.17
2023-01-15T23:35:28.761Z,25.95
2023-01-15T23:37:56.537Z,25.52
2023-01-15T23:40:24.402Z,26.12
2023-01-15T23:43:10.693Z,27.93
2023-01-15T23:46:00.178Z,28.30
2023-01-15T23:48:27.952Z,27.82
2023-01-15T23:50:56.206Z,29.07
2023-01-15T23:53:24.690Z,27.95
2023-01-15T23:55:52.604Z,28.35
2023-01-15T23:58:21.452Z,27.60
